Time;durP1;ratioP1;P1;durP2;ratioP2;P2;SDS_P1;SDS_P2;PMS_P1;PMS_P2;Temp;Humidity;BMP_temperature;BMP_pressure;BME280_temperature;BME280_humidity;BME280_pressure;Samples;Min_cycle;Max_cycle;Signal;HPM_P1;HPM_P2
2023/05/29 00:00:16;;;;;;;2.57;2.30;;;14.80;68.60;;;;;;5118491;28;20620;-72
2023/05/29 00:02:44;;;;;;;2.47;2.13;;;14.80;69.20;;;;;;5116634;28;20618;-72
2023/05/29 00:05:11;;;;;;;3.87;2.07;;;14.70;69.10;;;;;;5117596;28;20640;-71
2023/05/29 00:07:38;;;;;;;2.47;2.27;;;14.50;69.60;;;;;;5119556;27;20615;-72
2023/05/29 00:10:06;;;;;;;3.23;1.67;;;14.50;67.90;;;;;;5122011;27;20627;-71
2023/05/29 00:12:34;;;;;;;2.10;1.90;;;14.40;69.90;;;;;;5119767;27;20620;-72
2023/05/29 00:15:02;;;;;;;1.90;1.63;;;14.30;70.70;;;;;;5119508;27;21325;-71
2023/05/29 00:17:29;;;;;;;2.00;1.90;;;14.20;70.10;;;;;;5122442;27;20973;-71
2023/05/29 00:19:55;;;;;;;2.83;2.20;;;14.10;70.10;;;;;;5122753;27;20668;-71
2023/05/29 00:22:22;;;;;;;2.63;2.07;;;14.10;71.40;;;;;;5120361;27;20654;-71
2023/05/29 00:24:49;;;;;;;3.07;2.77;;;13.90;72.40;;;;;;5119985;27;20631;-71
2023/05/29 00:27:16;;;;;;;2.20;1.40;;;13.90;73.00;;;;;;5118965;27;20694;-72
2023/05/29 00:29:44;;;;;;;1.87;1.50;;;13.90;73.00;;;;;;5121526;27;20621;-72
2023/05/29 00:32:11;;;;;;;2.03;1.77;;;13.80;73.40;;;;;;5122975;27;20710;-71
2023/05/29 00:34:37;;;;;;;2.27;2.07;;;13.80;73.10;;;;;;5121487;27;20662;-71
2023/05/29 00:37:05;;;;;;;1.93;1.57;;;13.70;73.20;;;;;;5119076;27;20771;-71
2023/05/29 00:39:32;;;;;;;3.77;2.10;;;13.60;72.30;;;;;;5119127;27;20672;-71
2023/05/29 00:41:58;;;;;;;3.20;2.00;;;13.70;72.40;;;;;;5121202;27;20640;-72
2023/05/29 00:44:25;;;;;;;4.23;2.20;;;13.60;72.90;;;;;;5122819;27;20626;-71
2023/05/29 00:46:54;;;;;;;2.40;1.67;;;13.70;72.10;;;;;;5120263;27;20650;-71
2023/05/29 00:49:22;;;;;;;2.13;1.93;;;13.80;71.90;;;;;;5119143;27;20623;-72
2023/05/29 00:51:52;;;;;;;1.97;1.87;;;13.80;72.70;;;;;;5119273;27;20753;-71
2023/05/29 00:54:24;;;;;;;1.97;1.73;;;13.90;72.10;;;;;;5121964;27;20653;-71
2023/05/29 00:56:51;;;;;;;3.73;2.00;;;14.00;72.00;;;;;;5122046;27;21322;-72
2023/05/29 00:59:21;;;;;;;2.67;2.47;;;14.00;71.90;;;;;;5117699;27;20654;-72
2023/05/29 01:01:48;;;;;;;4.70;2.37;;;13.90;71.70;;;;;;5120999;27;20647;-72
2023/05/29 01:04:17;;;;;;;2.23;2.03;;;14.00;72.00;;;;;;5118982;27;20972;-72
2023/05/29 01:06:45;;;;;;;2.57;2.23;;;13.80;73.00;;;;;;5117883;27;20643;-71
2023/05/29 01:09:13;;;;;;;1.90;1.80;;;13.80;72.60;;;;;;5119976;27;20630;-71
2023/05/29 01:11:50;;;;;;;3.00;1.70;;;13.70;72.30;;;;;;5121647;27;20639;-72
2023/05/29 01:14:27;;;;;;;2.27;2.07;;;13.60;73.50;;;;;;5120179;27;20667;-72
2023/05/29 01:17:04;;;;;;;3.60;2.67;;;13.50;73.90;;;;;;5118436;27;20658;-71
2023/05/29 01:20:04;;;;;;;2.20;2.00;;;13.40;75.10;;;;;;5120254;27;20619;-71
2023/05/29 01:22:43;;;;;;;2.30;1.80;;;13.40;76.20;;;;;;5119300;27;20677;-71
2023/05/29 01:25:18;;;;;;;1.83;1.50;;;13.20;75.60;;;;;;5118578;27;20627;-72
2023/05/29 01:27:48;;;;;;;2.53;2.20;;;13.10;77.50;;;;;;5109813;27;20633;-72
2023/05/29 01:30:17;;;;;;;2.50;2.17;;;13.00;78.10;;;;;;5117441;27;20678;-71
2023/05/29 01:32:44;;;;;;;2.80;2.30;;;13.00;78.20;;;;;;5121155;27;20631;-72
2023/05/29 01:35:11;;;;;;;2.30;1.73;;;12.90;78.70;;;;;;5121536;27;20667;-71
2023/05/29 01:37:41;;;;;;;3.30;1.90;;;13.00;78.10;;;;;;5120395;27;20625;-71
2023/05/29 01:40:10;;;;;;;5.80;2.23;;;12.90;78.60;;;;;;5117052;27;20651;-71
2023/05/29 01:42:38;;;;;;;1.80;1.70;;;12.80;78.70;;;;;;5098965;28;20666;-71
2023/05/29 01:45:08;;;;;;;2.80;2.50;;;12.80;78.80;;;;;;5115098;27;20648;-71
2023/05/29 01:47:36;;;;;;;3.20;1.80;;;12.70;77.90;;;;;;5118044;27;20674;-71
2023/05/29 01:50:06;;;;;;;2.97;2.77;;;12.60;79.40;;;;;;5120551;27;20618;-71
2023/05/29 01:52:33;;;;;;;3.00;2.80;;;12.70;79.20;;;;;;5120796;27;20661;-71
2023/05/29 01:55:01;;;;;;;3.13;2.30;;;12.70;79.80;;;;;;5119233;27;21157;-71
2023/05/29 01:57:28;;;;;;;4.20;2.40;;;12.80;79.60;;;;;;5118029;27;20720;-71
2023/05/29 01:59:55;;;;;;;2.97;2.20;;;12.80;81.30;;;;;;5121102;27;20620;-71
2023/05/29 02:02:25;;;;;;;2.80;2.50;;;12.70;82.00;;;;;;5118010;27;21231;-72
2023/05/29 02:04:53;;;;;;;4.10;2.23;;;12.60;82.50;;;;;;5117882;27;20637;-72
2023/05/29 02:07:21;;;;;;;2.27;1.80;;;12.50;82.90;;;;;;5123324;27;20643;-71
2023/05/29 02:09:49;;;;;;;2.67;1.73;;;12.40;83.80;;;;;;5117180;27;20736;-71
2023/05/29 02:12:16;;;;;;;4.70;2.10;;;12.50;83.10;;;;;;5119414;27;20640;-71
2023/05/29 02:14:43;;;;;;;4.50;1.70;;;12.40;84.00;;;;;;5121014;27;21019;-71
2023/05/29 02:17:10;;;;;;;3.80;2.57;;;12.50;82.50;;;;;;5120097;27;20650;-71
2023/05/29 02:19:39;;;;;;;3.80;2.20;;;12.40;83.80;;;;;;5117080;27;20626;-71
2023/05/29 02:22:06;;;;;;;2.97;2.67;;;12.40;82.60;;;;;;5117135;27;20754;-71
2023/05/29 02:24:33;;;;;;;3.70;2.47;;;12.40;81.70;;;;;;5119641;27;20625;-72
2023/05/29 02:27:00;;;;;;;2.90;2.13;;;12.50;80.60;;;;;;5120421;27;20743;-71
2023/05/29 02:29:27;;;;;;;3.97;2.77;;;12.50;80.10;;;;;;5119022;27;20626;-71
2023/05/29 02:31:54;;;;;;;3.60;1.90;;;12.50;79.50;;;;;;5116007;27;20695;-71
2023/05/29 02:34:23;;;;;;;3.60;2.70;;;12.40;83.40;;;;;;5116790;27;20667;-71
2023/05/29 02:36:52;;;;;;;3.20;2.57;;;12.20;84.30;;;;;;5120256;27;20634;-72
2023/05/29 02:39:19;;;;;;;2.77;2.03;;;12.10;85.10;;;;;;5119852;27;20636;-71
2023/05/29 02:41:47;;;;;;;4.10;2.20;;;12.00;85.60;;;;;;5113583;27;20730;-71
2023/05/29 02:44:15;;;;;;;4.20;2.03;;;11.80;86.40;;;;;;5120400;27;20661;-71
2023/05/29 02:46:43;;;;;;;2.30;2.10;;;11.80;85.90;;;;;;5119138;27;20714;-71
2023/05/29 02:49:10;;;;;;;4.37;2.20;;;11.80;86.70;;;;;;5116552;27;20626;-71
2023/05/29 02:51:38;;;;;;;3.33;1.60;;;11.70;85.60;;;;;;5116219;27;21287;-71
2023/05/29 02:54:06;;;;;;;2.67;1.60;;;11.80;86.00;;;;;;5119828;27;20856;-71
2023/05/29 02:56:34;;;;;;;2.97;2.30;;;11.80;87.30;;;;;;5120351;27;20721;-71
2023/05/29 02:59:01;;;;;;;2.03;1.70;;;11.80;87.70;;;;;;5115591;27;20969;-71
2023/05/29 03:01:28;;;;;;;3.40;2.27;;;11.80;87.90;;;;;;5118265;27;20748;-71
2023/05/29 03:03:56;;;;;;;2.93;2.63;;;11.90;87.40;;;;;;5120020;27;20720;-71
2023/05/29 03:06:23;;;;;;;2.47;1.50;;;12.00;88.20;;;;;;5116528;27;21050;-71
2023/05/29 03:08:52;;;;;;;1.93;1.43;;;12.00;87.50;;;;;;5116891;27;21339;-71
2023/05/29 03:11:23;;;;;;;2.20;2.00;;;11.80;89.10;;;;;;5118202;27;20707;-71
2023/05/29 03:13:50;;;;;;;3.57;2.20;;;11.70;89.90;;;;;;5119547;27;20660;-72
2023/05/29 03:16:17;;;;;;;4.43;2.03;;;11.60;89.60;;;;;;5118055;27;20649;-71
2023/05/29 03:18:44;;;;;;;3.60;2.10;;;11.50;89.00;;;;;;5116350;27;20666;-72
2023/05/29 03:21:12;;;;;;;2.20;2.00;;;11.50;89.90;;;;;;5115985;27;20674;-71
2023/05/29 03:23:38;;;;;;;3.13;2.70;;;11.50;90.00;;;;;;5119838;27;21023;-71
2023/05/29 03:26:06;;;;;;;2.40;2.20;;;11.60;88.20;;;;;;5119624;27;20652;-71
2023/05/29 03:28:35;;;;;;;3.20;2.40;;;11.70;86.60;;;;;;5117332;27;20613;-71
2023/05/29 03:31:04;;;;;;;2.00;1.70;;;11.70;85.90;;;;;;5115621;28;20716;-71
2023/05/29 03:33:31;;;;;;;2.30;2.10;;;11.70;86.30;;;;;;5116841;28;20976;-71
2023/05/29 03:35:58;;;;;;;1.43;1.33;;;11.70;87.50;;;;;;5119721;27;20637;-71
2023/05/29 03:38:25;;;;;;;1.63;1.53;;;11.70;89.60;;;;;;5119642;28;20617;-71
2023/05/29 03:40:52;;;;;;;3.20;2.63;;;11.50;90.30;;;;;;5115659;28;20744;-71
2023/05/29 03:43:19;;;;;;;1.57;1.47;;;11.40;90.00;;;;;;5117941;27;20625;-71
2023/05/29 03:45:47;;;;;;;2.07;1.87;;;11.30;90.50;;;;;;5121844;27;20645;-71
2023/05/29 03:48:15;;;;;;;2.97;2.03;;;11.30;90.90;;;;;;5123061;27;20707;-71
2023/05/29 03:50:41;;;;;;;3.77;2.70;;;11.40;90.60;;;;;;5123099;27;20701;-72
2023/05/29 03:53:08;;;;;;;2.53;2.20;;;11.50;89.90;;;;;;5111612;27;21007;-71
2023/05/29 03:55:35;;;;;;;3.13;2.43;;;11.60;90.20;;;;;;5119707;27;21142;-71
2023/05/29 03:58:02;;;;;;;2.43;2.20;;;11.60;90.60;;;;;;5122422;27;20626;-71
2023/05/29 04:00:29;;;;;;;5.00;2.20;;;11.50;90.60;;;;;;5121373;27;20642;-71
2023/05/29 04:02:57;;;;;;;2.27;2.07;;;11.40;91.10;;;;;;5120119;27;20652;-72
2023/05/29 04:05:25;;;;;;;2.50;2.00;;;11.40;91.70;;;;;;5123320;27;20661;-71
2023/05/29 04:07:52;;;;;;;2.80;2.07;;;11.30;91.70;;;;;;5123499;27;20629;-71
2023/05/29 04:10:19;;;;;;;2.13;1.87;;;11.40;91.70;;;;;;5119772;27;20751;-71
2023/05/29 04:12:45;;;;;;;2.57;1.97;;;11.50;91.70;;;;;;5120404;27;20667;-71
2023/05/29 04:15:12;;;;;;;3.97;2.60;;;11.60;90.90;;;;;;5120360;27;21309;-71
2023/05/29 04:17:39;;;;;;;2.57;2.10;;;11.70;90.10;;;;;;5123354;27;20626;-71
2023/05/29 04:20:08;;;;;;;2.47;2.27;;;11.80;89.80;;;;;;5122293;27;21060;-72
2023/05/29 04:22:36;;;;;;;4.80;2.60;;;11.80;90.00;;;;;;5112920;27;20745;-71
2023/05/29 04:25:04;;;;;;;2.33;2.13;;;11.90;89.60;;;;;;5122521;27;20689;-71
2023/05/29 04:27:32;;;;;;;3.73;2.57;;;11.90;89.50;;;;;;5121698;27;20637;-71
2023/05/29 04:29:58;;;;;;;4.73;3.13;;;12.00;89.20;;;;;;5119090;27;20809;-71
2023/05/29 04:32:26;;;;;;;2.97;2.27;;;12.10;89.00;;;;;;5119472;27;20662;-71
2023/05/29 04:34:52;;;;;;;2.30;2.10;;;12.10;90.50;;;;;;5122678;27;20989;-71
2023/05/29 04:37:29;;;;;;;3.10;2.23;;;12.00;90.70;;;;;;5122087;27;20752;-71
2023/05/29 04:39:57;;;;;;;3.77;2.00;;;12.00;91.20;;;;;;5110622;27;20727;-71
2023/05/29 04:42:24;;;;;;;2.00;1.80;;;12.00;91.10;;;;;;5120441;27;20660;-71
2023/05/29 04:44:52;;;;;;;3.20;1.97;;;12.10;90.80;;;;;;5120642;27;20718;-70
2023/05/29 04:47:19;;;;;;;3.43;2.20;;;12.30;90.10;;;;;;5119645;27;20806;-71
2023/05/29 04:49:49;;;;;;;5.90;2.30;;;12.20;91.30;;;;;;5118587;27;21142;-71
2023/05/29 04:52:16;;;;;;;2.83;1.70;;;12.30;91.50;;;;;;5122769;27;20657;-71
2023/05/29 04:54:44;;;;;;;4.60;3.13;;;12.30;91.50;;;;;;5122236;27;20665;-71
2023/05/29 04:57:11;;;;;;;2.07;1.97;;;12.40;90.50;;;;;;5110953;27;20658;-71
2023/05/29 04:59:38;;;;;;;3.53;2.10;;;12.40;90.70;;;;;;5120628;27;20630;-71
2023/05/29 05:02:05;;;;;;;4.40;2.83;;;12.50;91.20;;;;;;5120272;27;20676;-71
2023/05/29 05:04:33;;;;;;;2.53;2.30;;;12.50;90.80;;;;;;5118547;27;20630;-71
2023/05/29 05:07:00;;;;;;;7.60;2.80;;;12.60;91.20;;;;;;5119252;27;20668;-71
2023/05/29 05:09:27;;;;;;;3.43;2.37;;;12.70;91.00;;;;;;5111810;27;20623;-71
2023/05/29 05:11:55;;;;;;;2.87;2.53;;;12.80;90.50;;;;;;5118904;27;20650;-71
2023/05/29 05:14:23;;;;;;;7.00;2.50;;;12.90;90.10;;;;;;5121613;27;20731;-72
2023/05/29 05:16:50;;;;;;;2.40;2.20;;;13.00;87.70;;;;;;5120763;27;21088;-72
2023/05/29 05:19:17;;;;;;;2.20;2.00;;;13.10;87.40;;;;;;5107530;27;20627;-71
2023/05/29 05:21:44;;;;;;;2.97;1.83;;;13.20;87.60;;;;;;5109528;27;21228;-71
2023/05/29 05:24:11;;;;;;;6.20;2.40;;;13.30;86.80;;;;;;5103549;27;20617;-71
2023/05/29 05:26:38;;;;;;;4.63;3.40;;;13.40;86.50;;;;;;5109115;27;20642;-71
2023/05/29 05:29:06;;;;;;;3.77;2.37;;;13.50;86.50;;;;;;5121868;27;21187;-71
2023/05/29 05:31:32;;;;;;;2.90;2.50;;;13.60;85.40;;;;;;5118856;27;20660;-71
2023/05/29 05:33:59;;;;;;;3.53;1.90;;;13.60;85.50;;;;;;5118513;27;20628;-71
2023/05/29 05:36:26;;;;;;;4.40;2.30;;;13.70;86.00;;;;;;5118696;27;20668;-71
2023/05/29 05:38:53;;;;;;;4.17;2.93;;;13.70;84.90;;;;;;5109893;27;20619;-71
2023/05/29 05:41:20;;;;;;;3.10;2.47;;;13.80;85.80;;;;;;5117128;27;20659;-71
2023/05/29 05:43:47;;;;;;;2.20;2.00;;;13.90;85.20;;;;;;5119846;27;20624;-72
2023/05/29 05:46:17;;;;;;;2.33;2.03;;;14.00;85.10;;;;;;5120866;27;20668;-71
2023/05/29 05:48:44;;;;;;;2.60;2.00;;;14.10;85.20;;;;;;5119309;27;21237;-71
2023/05/29 05:51:11;;;;;;;2.53;2.00;;;14.20;84.30;;;;;;5117657;27;20891;-73
2023/05/29 05:53:38;;;;;;;4.03;2.97;;;14.30;83.90;;;;;;5118272;27;20634;-73
2023/05/29 05:56:05;;;;;;;3.73;2.10;;;14.30;83.90;;;;;;5120642;27;20678;-73
2023/05/29 05:58:32;;;;;;;5.03;2.73;;;14.40;83.90;;;;;;5118497;27;21213;-73
2023/05/29 06:00:59;;;;;;;2.40;1.73;;;14.50;84.00;;;;;;5118231;27;20652;-73
2023/05/29 06:03:27;;;;;;;2.80;2.50;;;14.60;84.20;;;;;;5121294;27;20690;-73
2023/05/29 06:05:55;;;;;;;2.13;1.90;;;14.70;84.40;;;;;;5119875;27;20645;-75
2023/05/29 06:08:21;;;;;;;2.53;2.27;;;14.80;83.90;;;;;;5121287;27;20630;-75
2023/05/29 06:10:48;;;;;;;2.47;2.27;;;14.80;84.60;;;;;;5120253;27;20742;-75
2023/05/29 06:13:16;;;;;;;2.20;2.00;;;14.90;84.30;;;;;;5118484;27;21180;-75
2023/05/29 06:15:43;;;;;;;2.20;1.70;;;15.00;84.30;;;;;;5118712;27;20668;-75
2023/05/29 06:18:10;;;;;;;2.17;2.00;;;15.10;83.80;;;;;;5120750;27;20624;-75
2023/05/29 06:20:39;;;;;;;4.50;2.27;;;15.20;82.70;;;;;;5116773;27;20752;-74
2023/05/29 06:23:05;;;;;;;3.63;2.78;;;15.30;82.50;;;;;;5116541;27;20750;-76
2023/05/29 06:25:33;;;;;;;4.40;2.00;;;15.40;82.30;;;;;;5119378;27;20235;-75
2023/05/29 06:28:00;;;;;;;1.90;1.80;;;15.50;82.70;;;;;;5120253;27;20966;-72
2023/05/29 06:30:27;;;;;;;4.95;3.15;;;15.50;80.70;;;;;;5118440;27;20741;-79
2023/05/29 06:32:54;;;;;;;3.70;2.57;;;15.50;81.60;;;;;;5117250;27;20204;-79
2023/05/29 06:35:21;;;;;;;3.77;2.73;;;15.50;80.30;;;;;;5117077;27;20663;-77
2023/05/29 06:37:49;;;;;;;2.20;2.00;;;15.50;80.20;;;;;;5119880;27;20848;-80
2023/05/29 06:40:16;;;;;;;4.00;2.80;;;15.70;80.50;;;;;;5119363;27;20703;-80
2023/05/29 06:42:45;;;;;;;1.92;1.83;;;15.70;78.20;;;;;;5119207;27;20730;-80
2023/05/29 06:45:13;;;;;;;2.30;2.10;;;15.80;78.40;;;;;;5116948;27;20198;-80
2023/05/29 06:47:40;;;;;;;3.40;2.53;;;15.80;79.00;;;;;;5117429;27;20625;-72
2023/05/29 06:50:08;;;;;;;1.90;1.80;;;15.90;77.80;;;;;;5119579;27;20622;-72
2023/05/29 06:52:35;;;;;;;3.00;2.53;;;16.00;77.80;;;;;;5120658;27;20643;-72
2023/05/29 06:55:04;;;;;;;2.53;2.17;;;16.10;77.90;;;;;;5117097;27;20709;-72
2023/05/29 06:57:31;;;;;;;4.83;2.13;;;16.20;77.00;;;;;;5116980;27;20646;-71
2023/05/29 06:59:57;;;;;;;4.40;2.30;;;16.30;77.10;;;;;;5120135;27;20640;-71
2023/05/29 07:02:24;;;;;;;3.20;2.00;;;16.40;77.40;;;;;;5116861;27;20645;-71
2023/05/29 07:04:51;;;;;;;3.67;2.23;;;16.50;77.00;;;;;;5116634;27;20626;-71
2023/05/29 07:07:18;;;;;;;2.57;2.00;;;16.70;77.30;;;;;;5118815;27;20769;-70
2023/05/29 07:09:45;;;;;;;2.33;2.17;;;16.80;77.70;;;;;;5109527;27;20621;-71
2023/05/29 07:12:13;;;;;;;2.80;2.27;;;17.00;78.00;;;;;;5104629;27;20647;-71
2023/05/29 07:14:40;;;;;;;1.93;1.73;;;17.20;74.90;;;;;;5103578;27;20711;-71
2023/05/29 07:17:06;;;;;;;2.50;2.30;;;17.10;76.20;;;;;;5111642;27;20678;-70
2023/05/29 07:19:33;;;;;;;4.80;2.50;;;17.20;75.10;;;;;;5105606;27;21257;-69
2023/05/29 07:22:00;;;;;;;6.50;2.20;;;17.30;74.90;;;;;;5114657;27;20647;-69
2023/05/29 07:24:27;;;;;;;2.77;2.33;;;17.30;74.30;;;;;;5113628;27;21005;-69
2023/05/29 07:26:55;;;;;;;2.60;1.90;;;17.30;75.40;;;;;;5116146;27;20645;-69
2023/05/29 07:29:23;;;;;;;1.83;1.57;;;17.50;74.40;;;;;;5116763;27;20687;-69
2023/05/29 07:31:50;;;;;;;3.43;2.40;;;17.50;74.40;;;;;;5114880;28;20656;-69
2023/05/29 07:34:17;;;;;;;2.63;2.43;;;17.70;74.70;;;;;;5116005;28;20629;-69
2023/05/29 07:36:58;;;;;;;5.50;3.20;;;17.70;73.20;;;;;;5118502;28;20681;-69
2023/05/29 07:39:25;;;;;;;4.53;2.30;;;17.90;74.40;;;;;;5119281;28;20619;-69
2023/05/29 07:41:52;;;;;;;2.13;1.80;;;18.10;73.90;;;;;;5113645;28;20840;-69
2023/05/29 07:44:19;;;;;;;3.27;2.40;;;18.20;73.00;;;;;;5119606;28;20718;-69
2023/05/29 07:46:47;;;;;;;2.37;2.17;;;18.40;73.10;;;;;;5117728;28;21278;-69
2023/05/29 07:49:14;;;;;;;3.50;2.20;;;18.50;71.30;;;;;;5115002;28;20621;-69
2023/05/29 07:51:41;;;;;;;3.70;2.70;;;18.30;73.00;;;;;;5115878;28;20640;-69
2023/05/29 07:54:08;;;;;;;2.10;1.90;;;18.40;73.70;;;;;;5119500;28;20623;-69
2023/05/29 07:56:35;;;;;;;2.20;2.00;;;18.50;72.30;;;;;;5119666;28;21179;-69
2023/05/29 07:59:03;;;;;;;3.90;2.50;;;18.70;72.50;;;;;;5114952;28;20620;-69
2023/05/29 08:01:29;;;;;;;3.80;2.40;;;18.50;70.40;;;;;;5118324;28;20738;-68
2023/05/29 08:03:58;;;;;;;2.33;2.00;;;18.40;70.50;;;;;;5118849;28;20651;-69
2023/05/29 08:06:25;;;;;;;2.60;2.27;;;18.50;72.20;;;;;;5116426;28;20671;-69
2023/05/29 08:08:52;;;;;;;3.77;2.80;;;18.60;70.80;;;;;;5116107;27;20628;-69
2023/05/29 08:11:19;;;;;;;2.50;2.10;;;18.70;71.30;;;;;;5118161;27;20648;-69
2023/05/29 08:13:46;;;;;;;2.70;2.50;;;18.90;69.00;;;;;;5119549;27;20624;-69
2023/05/29 08:16:16;;;;;;;4.80;2.63;;;19.00;69.10;;;;;;5116901;27;20715;-69
2023/05/29 08:18:43;;;;;;;3.13;2.50;;;19.10;68.00;;;;;;5116489;28;21252;-69
2023/05/29 08:21:12;;;;;;;3.33;2.57;;;19.30;68.10;;;;;;5115140;28;20656;-69
2023/05/29 08:23:39;;;;;;;3.70;3.03;;;19.50;69.00;;;;;;5119517;28;20735;-69
2023/05/29 08:26:06;;;;;;;2.63;2.40;;;19.80;66.70;;;;;;5118886;28;20647;-69
2023/05/29 08:28:33;;;;;;;4.00;3.07;;;20.10;66.40;;;;;;5117183;27;21023;-68
2023/05/29 08:31:00;;;;;;;2.30;2.07;;;19.80;66.80;;;;;;5118452;27;20763;-69
2023/05/29 08:33:26;;;;;;;3.10;2.80;;;19.90;66.60;;;;;;5120961;27;20626;-69
2023/05/29 08:35:53;;;;;;;3.13;2.30;;;20.10;65.50;;;;;;5122791;27;20667;-69
2023/05/29 08:38:21;;;;;;;2.30;2.10;;;20.00;66.00;;;;;;5123099;27;21107;-69
2023/05/29 08:40:49;;;;;;;2.57;2.27;;;20.30;65.50;;;;;;5119266;27;20675;-69
2023/05/29 08:43:22;;;;;;;5.37;2.80;;;20.50;63.80;;;;;;5113624;27;20662;-69
2023/05/29 08:45:54;;;;;;;10.33;2.30;;;20.60;62.80;;;;;;5121492;27;20651;-70
2023/05/29 08:48:25;;;;;;;3.30;2.90;;;20.60;64.30;;;;;;5122441;27;21021;-69
2023/05/29 08:50:54;;;;;;;2.17;1.97;;;20.50;62.80;;;;;;5119702;27;21228;-69
2023/05/29 08:53:23;;;;;;;3.03;2.73;;;20.50;64.00;;;;;;5119278;27;20604;-69
2023/05/29 08:55:52;;;;;;;2.77;2.17;;;20.50;63.90;;;;;;5119195;27;21271;-69
2023/05/29 08:58:20;;;;;;;2.70;2.07;;;20.80;63.90;;;;;;5122172;27;20619;-69
2023/05/29 09:00:48;;;;;;;1.73;1.63;;;21.00;64.50;;;;;;5118514;27;20644;-69
2023/05/29 09:03:15;;;;;;;2.70;2.30;;;21.10;63.60;;;;;;5110984;27;20957;-69
2023/05/29 09:05:43;;;;;;;2.83;2.63;;;21.20;62.50;;;;;;5118998;27;20658;-69
2023/05/29 09:08:11;;;;;;;4.93;2.80;;;21.30;63.70;;;;;;5120380;27;20741;-69
2023/05/29 09:10:41;;;;;;;5.27;3.37;;;21.10;61.40;;;;;;5121463;27;20654;-69
2023/05/29 09:13:09;;;;;;;2.50;2.20;;;21.30;64.50;;;;;;5120955;27;21269;-69
2023/05/29 09:15:38;;;;;;;2.37;2.17;;;21.60;60.80;;;;;;5118687;27;21004;-69
2023/05/29 09:18:05;;;;;;;2.70;2.20;;;21.80;62.60;;;;;;5118930;27;21152;-69
2023/05/29 09:20:33;;;;;;;2.07;1.97;;;21.90;61.20;;;;;;5109681;27;20724;-69
2023/05/29 09:23:02;;;;;;;4.67;2.73;;;22.00;62.40;;;;;;5118530;27;20616;-69
2023/05/29 09:25:32;;;;;;;3.83;2.40;;;21.90;61.70;;;;;;5120794;27;20651;-69
2023/05/29 09:28:03;;;;;;;4.10;2.50;;;21.90;63.30;;;;;;5122184;27;20630;-69
2023/05/29 09:30:35;;;;;;;3.60;2.60;;;22.10;62.90;;;;;;5118957;27;20659;-69
2023/05/29 09:33:04;;;;;;;2.60;2.10;;;22.40;60.10;;;;;;5118588;27;21278;-69
2023/05/29 09:35:34;;;;;;;3.30;3.00;;;22.50;61.60;;;;;;5119303;27;20644;-69
2023/05/29 09:38:02;;;;;;;3.50;3.20;;;22.40;61.50;;;;;;5122156;27;20706;-69
2023/05/29 09:40:32;;;;;;;3.37;3.07;;;22.30;61.80;;;;;;5120260;27;20658;-69
2023/05/29 09:43:08;;;;;;;4.43;2.60;;;22.50;60.40;;;;;;5118170;27;21068;-69
2023/05/29 09:45:39;;;;;;;2.60;2.40;;;22.70;60.00;;;;;;5117754;27;20658;-69
2023/05/29 09:48:07;;;;;;;2.60;2.40;;;22.80;60.40;;;;;;5122077;27;20628;-69
2023/05/29 09:50:34;;;;;;;4.70;2.80;;;22.90;60.90;;;;;;5120537;27;20668;-69
2023/05/29 09:53:02;;;;;;;2.97;2.23;;;22.90;59.10;;;;;;5118702;27;20722;-69
2023/05/29 09:55:31;;;;;;;3.10;2.80;;;22.80;61.00;;;;;;5117668;27;20644;-69
2023/05/29 09:57:59;;;;;;;2.93;2.70;;;23.00;60.90;;;;;;5119496;27;20629;-69
2023/05/29 10:00:28;;;;;;;2.90;2.63;;;23.20;59.90;;;;;;5119140;27;21246;-69
2023/05/29 10:02:55;;;;;;;3.63;3.33;;;23.30;60.70;;;;;;5118699;27;20623;-67
2023/05/29 10:05:22;;;;;;;3.50;2.80;;;23.40;58.70;;;;;;5121241;27;20616;-69
2023/05/29 10:07:53;;;;;;;4.03;3.50;;;23.60;59.40;;;;;;5121080;27;20608;-68
2023/05/29 10:10:21;;;;;;;2.57;2.40;;;23.60;59.60;;;;;;5117077;27;21110;-68
2023/05/29 10:12:50;;;;;;;5.23;2.50;;;23.90;58.90;;;;;;5116703;27;20670;-68
2023/05/29 10:15:19;;;;;;;2.93;2.27;;;23.70;59.20;;;;;;5107929;27;20976;-71
2023/05/29 10:17:53;;;;;;;2.87;2.57;;;23.80;57.20;;;;;;5102446;27;20671;-71
2023/05/29 10:20:23;;;;;;;4.40;2.10;;;23.90;57.50;;;;;;5105756;27;20987;-76
2023/05/29 10:22:52;;;;;;;3.03;2.70;;;24.20;59.30;;;;;;5103483;27;20628;-75
2023/05/29 10:25:21;;;;;;;3.40;2.43;;;24.40;58.50;;;;;;5104086;27;20641;-69
2023/05/29 10:27:48;;;;;;;3.50;2.50;;;24.60;57.40;;;;;;5105392;27;20668;-71
2023/05/29 10:30:26;;;;;;;5.83;4.47;;;24.70;58.50;;;;;;5113283;27;20638;-73
2023/05/29 10:33:31;;;;;;;4.53;4.13;;;24.70;58.80;;;;;;5112971;27;20611;-72
2023/05/29 10:36:08;;;;;;;3.80;3.20;;;24.50;55.40;;;;;;5109741;27;20644;-72
2023/05/29 10:38:36;;;;;;;2.83;2.27;;;24.80;55.30;;;;;;5116050;27;20645;-72
2023/05/29 10:41:31;;;;;;;2.60;2.40;;;25.00;56.00;;;;;;5104777;27;20980;-73
2023/05/29 10:43:59;;;;;;;3.10;2.23;;;25.20;55.30;;;;;;5106570;27;21211;-72
2023/05/29 10:47:03;;;;;;;3.40;2.80;;;25.30;55.60;;;;;;5103468;27;20640;-73
2023/05/29 10:49:32;;;;;;;3.50;2.10;;;25.50;56.30;;;;;;5111498;27;20619;-73
2023/05/29 10:52:00;;;;;;;3.40;2.88;;;25.60;52.60;;;;;;5116772;27;20799;-74
2023/05/29 10:54:27;;;;;;;2.43;2.17;;;25.90;53.10;;;;;;5118218;27;20201;-73
2023/05/29 10:56:57;;;;;;;3.20;2.30;;;25.90;52.00;;;;;;5116227;27;20670;-75
2023/05/29 10:59:27;;;;;;;6.80;2.53;;;25.90;54.30;;;;;;5113714;27;20638;-74
2023/05/29 11:01:54;;;;;;;2.67;2.47;;;26.00;52.20;;;;;;5112720;27;20656;-74
2023/05/29 11:04:33;;;;;;;2.57;2.37;;;26.20;52.20;;;;;;5117410;27;20714;-74
2023/05/29 11:07:03;;;;;;;3.80;2.70;;;26.40;49.60;;;;;;5115597;27;20687;-75
2023/05/29 11:09:34;;;;;;;2.57;2.33;;;26.60;50.80;;;;;;5118549;27;20622;-74
2023/05/29 11:12:25;;;;;;;2.33;2.10;;;26.50;49.70;;;;;;5117897;27;20643;-74
2023/05/29 11:14:56;;;;;;;2.67;2.47;;;26.40;49.00;;;;;;5116246;27;20635;-74
2023/05/29 11:17:33;;;;;;;3.67;2.63;;;26.50;48.80;;;;;;5121175;27;20929;-75
2023/05/29 11:20:06;;;;;;;3.60;2.30;;;26.80;48.30;;;;;;5116162;27;20199;-74
2023/05/29 11:23:03;;;;;;;2.60;1.67;;;27.00;48.90;;;;;;5107919;27;20647;-74
2023/05/29 11:25:37;;;;;;;3.60;2.67;;;27.10;48.20;;;;;;5121256;27;20713;-74
2023/05/29 11:28:08;;;;;;;2.50;2.30;;;26.90;50.00;;;;;;5115478;27;20616;-72
2023/05/29 11:30:45;;;;;;;4.53;2.50;;;27.30;49.70;;;;;;5117832;27;20664;-72
2023/05/29 11:33:23;;;;;;;1.83;1.73;;;27.10;49.60;;;;;;5103632;28;20634;-72
2023/05/29 11:35:57;;;;;;;2.60;2.40;;;27.20;49.30;;;;;;5099152;28;21026;-71
2023/05/29 11:38:24;;;;;;;2.63;2.40;;;27.40;48.60;;;;;;5112049;28;20675;-79
2023/05/29 11:40:51;;;;;;;4.30;3.07;;;27.60;48.30;;;;;;5097256;28;20645;-70
2023/05/29 11:43:18;;;;;;;2.63;2.10;;;28.10;48.30;;;;;;5116348;27;20628;-71
2023/05/29 11:45:45;;;;;;;2.37;2.10;;;28.50;46.70;;;;;;5117162;28;20698;-71
2023/05/29 11:48:12;;;;;;;5.13;2.50;;;28.50;47.80;;;;;;5117796;28;20622;-71
2023/05/29 11:50:38;;;;;;;2.73;2.50;;;28.50;46.20;;;;;;5111498;28;20648;-70
2023/05/29 11:53:07;;;;;;;2.93;2.60;;;29.00;44.80;;;;;;5118708;28;20968;-70
2023/05/29 11:55:34;;;;;;;2.90;2.50;;;29.90;43.10;;;;;;5118478;28;20659;-70
2023/05/29 11:58:02;;;;;;;2.60;2.40;;;30.00;45.20;;;;;;5106251;28;20698;-70
2023/05/29 12:00:32;;;;;;;2.30;2.10;;;30.40;44.50;;;;;;5107438;28;20789;-69
2023/05/29 12:03:03;;;;;;;1.73;1.63;;;31.10;42.30;;;;;;5111174;27;20680;-69
2023/05/29 12:05:30;;;;;;;3.03;2.20;;;31.40;43.00;;;;;;5111984;27;20656;-71
2023/05/29 12:07:57;;;;;;;4.70;2.13;;;31.80;41.90;;;;;;5117300;27;21063;-70
2023/05/29 12:10:25;;;;;;;1.83;1.73;;;32.40;40.70;;;;;;5113938;27;21069;-70
2023/05/29 12:12:54;;;;;;;5.03;1.80;;;33.10;37.70;;;;;;5119659;27;20642;-70
2023/05/29 12:15:22;;;;;;;1.70;1.57;;;33.30;38.10;;;;;;5121713;27;20638;-70
2023/05/29 12:17:50;;;;;;;2.90;2.03;;;33.20;36.60;;;;;;5122808;27;20649;-68
2023/05/29 12:20:18;;;;;;;2.10;1.97;;;33.40;36.30;;;;;;5120974;27;21080;-69
2023/05/29 12:22:46;;;;;;;2.63;2.43;;;33.90;35.40;;;;;;5122062;27;20623;-68
2023/05/29 12:25:13;;;;;;;1.97;1.87;;;34.00;36.90;;;;;;5122421;27;20625;-69
2023/05/29 12:27:42;;;;;;;3.43;2.13;;;34.20;35.50;;;;;;5119859;27;20618;-68
2023/05/29 12:30:11;;;;;;;2.50;2.27;;;34.10;36.30;;;;;;5114380;27;20624;-68
2023/05/29 12:32:40;;;;;;;2.57;2.37;;;34.20;35.30;;;;;;5126757;27;20654;-69
2023/05/29 12:35:15;;;;;;;2.27;2.07;;;34.90;35.30;;;;;;5119516;27;20663;-69
2023/05/29 12:37:46;;;;;;;2.03;1.70;;;34.30;34.10;;;;;;5122349;27;20623;-68
2023/05/29 12:40:17;;;;;;;2.47;2.03;;;34.60;34.70;;;;;;5121652;27;20221;-68
2023/05/29 12:42:45;;;;;;;2.30;2.10;;;34.30;35.00;;;;;;5120320;27;20185;-68
2023/05/29 12:45:12;;;;;;;2.30;2.10;;;34.70;34.00;;;;;;5119103;27;20272;-69
2023/05/29 12:47:46;;;;;;;2.00;1.90;;;35.30;33.80;;;;;;5119937;27;20387;-70
2023/05/29 12:50:23;;;;;;;2.10;1.93;;;35.30;33.00;;;;;;5121469;27;21194;-70
2023/05/29 12:52:58;;;;;;;1.93;1.77;;;35.40;32.30;;;;;;5120937;27;20618;-69
2023/05/29 12:55:25;;;;;;;2.57;2.37;;;35.10;33.80;;;;;;5116490;27;20601;-70